createdAt,value
2023-02-22T00:02:14.096Z,7.23
2023-02-22T00:04:42.078Z,7.16
2023-02-22T00:07:10.026Z,7.17
2023-02-22T00:09:37.822Z,7.20
2023-02-22T00:12:05.772Z,7.17
2023-02-22T00:14:33.640Z,7.18
2023-02-22T00:17:02.520Z,7.22
2023-02-22T00:19:31.076Z,7.19
2023-02-22T00:22:00.302Z,7.17
2023-02-22T00:24:29.557Z,7.18
2023-02-22T00:26:57.624Z,7.21
2023-02-22T00:29:26.516Z,7.22
2023-02-22T00:31:54.514Z,7.21
2023-02-22T00:34:24.154Z,7.22
2023-02-22T00:36:52.122Z,7.20
2023-02-22T00:39:20.388Z,7.18
2023-02-22T00:41:49.833Z,7.26
2023-02-22T00:44:17.865Z,7.27
2023-02-22T00:46:46.320Z,7.24
2023-02-22T00:49:17.049Z,7.24
2023-02-22T00:51:45.149Z,7.20
2023-02-22T00:54:14.411Z,7.19
2023-02-22T00:56:42.797Z,7.19
2023-02-22T00:59:10.675Z,7.20
2023-02-22T01:01:38.575Z,7.22
2023-02-22T01:04:06.916Z,7.28
2023-02-22T01:06:35.310Z,7.27
2023-02-22T01:09:04.727Z,7.29
2023-02-22T01:11:32.533Z,7.28
2023-02-22T01:14:02.210Z,7.28
2023-02-22T01:16:30.030Z,7.25
2023-02-22T01:18:57.848Z,7.23
2023-02-22T01:21:25.649Z,7.18
2023-02-22T01:23:55.685Z,7.15
2023-02-22T01:26:23.654Z,7.10
2023-02-22T01:28:51.441Z,7.08
2023-02-22T01:31:19.794Z,7.11
2023-02-22T01:33:47.866Z,7.07
2023-02-22T01:36:16.681Z,7.01
2023-02-22T01:38:45.534Z,6.96
2023-02-22T01:41:13.941Z,6.98
2023-02-22T01:43:41.793Z,6.94
2023-02-22T01:46:25.952Z,6.87
2023-02-22T01:48:59.789Z,6.87
2023-02-22T01:51:37.739Z,6.87
2023-02-22T01:54:33.470Z,6.86
2023-02-22T01:57:29.933Z,6.86
2023-02-22T02:00:10.176Z,6.87
2023-02-22T02:02:48.073Z,6.90
2023-02-22T02:05:20.446Z,6.90
2023-02-22T02:07:49.390Z,6.92
2023-02-22T02:10:17.994Z,6.95
2023-02-22T02:12:50.736Z,6.94
2023-02-22T02:15:32.361Z,6.93
2023-02-22T02:18:09.023Z,6.91
2023-02-22T02:20:50.579Z,6.90
2023-02-22T02:23:44.156Z,6.90
2023-02-22T02:26:42.361Z,6.88
2023-02-22T02:29:43.637Z,6.85
2023-02-22T02:32:30.274Z,6.84
2023-02-22T02:35:51.083Z,6.81
2023-02-22T02:38:46.160Z,6.85
2023-02-22T02:41:34.994Z,6.85
2023-02-22T02:44:13.152Z,6.83
2023-02-22T02:46:59.347Z,6.81
2023-02-22T02:49:58.443Z,6.79
2023-02-22T02:52:29.190Z,6.78
2023-02-22T02:54:58.544Z,6.80
2023-02-22T02:57:26.487Z,6.84
2023-02-22T02:59:54.265Z,6.90
2023-02-22T03:02:25.908Z,6.98
2023-02-22T03:05:45.249Z,6.99
2023-02-22T03:08:40.870Z,6.93
2023-02-22T03:11:42.730Z,6.89
2023-02-22T03:14:27.105Z,6.90
2023-02-22T03:17:16.756Z,6.93
2023-02-22T03:20:09.774Z,6.93
2023-02-22T03:22:54.562Z,6.94
2023-02-22T03:25:34.159Z,6.92
2023-02-22T03:28:11.859Z,6.91
2023-02-22T03:30:50.713Z,6.89
2023-02-22T03:33:34.020Z,6.87
2023-02-22T03:36:30.089Z,6.91
2023-02-22T03:39:01.114Z,6.91
2023-02-22T03:41:33.598Z,6.90
2023-02-22T03:44:11.837Z,6.95
2023-02-22T03:46:42.223Z,6.97
2023-02-22T03:49:35.122Z,6.98
2023-02-22T03:52:05.137Z,6.95
2023-02-22T03:54:35.041Z,6.96
2023-02-22T03:57:26.276Z,6.97
2023-02-22T04:00:07.395Z,7.01
2023-02-22T04:02:41.904Z,7.02
2023-02-22T04:05:10.771Z,6.99
2023-02-22T04:07:38.551Z,6.98
2023-02-22T04:10:11.046Z,7.00
2023-02-22T04:12:39.749Z,7.00
2023-02-22T04:15:12.363Z,6.99
2023-02-22T04:17:40.148Z,6.97
2023-02-22T04:20:11.692Z,6.98
2023-02-22T04:22:46.841Z,6.96
2023-02-22T04:25:16.064Z,6.94
2023-02-22T04:27:44.741Z,6.93
2023-02-22T04:30:13.388Z,6.95
2023-02-22T04:32:41.760Z,6.94
2023-02-22T04:35:10.002Z,6.94
2023-02-22T04:37:38.017Z,6.96
2023-02-22T04:40:08.901Z,6.95
2023-02-22T04:42:38.854Z,6.97
2023-02-22T04:45:09.551Z,6.97
2023-02-22T04:47:38.343Z,6.98
2023-02-22T04:50:09.553Z,6.99
2023-02-22T04:52:37.810Z,6.96
2023-02-22T04:55:07.515Z,7.00
2023-02-22T04:57:37.265Z,7.01
2023-02-22T05:00:06.384Z,7.02
2023-02-22T05:02:34.815Z,7.08
2023-02-22T05:05:02.664Z,7.08
2023-02-22T05:07:30.589Z,7.15
2023-02-22T05:09:58.802Z,7.16
2023-02-22T05:12:27.949Z,7.15
2023-02-22T05:14:55.756Z,7.12
2023-02-22T05:17:23.752Z,7.09
2023-02-22T05:19:51.527Z,7.11
2023-02-22T05:22:19.283Z,7.14
2023-02-22T05:24:47.124Z,7.16
2023-02-22T05:27:14.925Z,7.16
2023-02-22T05:29:42.703Z,7.16
2023-02-22T05:32:12.293Z,7.17
2023-02-22T05:34:40.597Z,7.14
2023-02-22T05:37:08.350Z,7.12
2023-02-22T05:39:36.176Z,7.12
2023-02-22T05:42:04.262Z,7.09
2023-02-22T05:44:32.026Z,7.06
2023-02-22T05:46:59.844Z,7.06
2023-02-22T05:49:27.716Z,7.07
2023-02-22T05:51:59.569Z,7.10
2023-02-22T05:54:27.318Z,7.09
2023-02-22T05:56:55.135Z,7.04
2023-02-22T05:59:22.954Z,7.02
2023-02-22T06:01:50.765Z,7.00
2023-02-22T06:04:18.597Z,7.03
2023-02-22T06:06:46.419Z,7.04
2023-02-22T06:09:14.249Z,7.02
2023-02-22T06:11:42.080Z,7.00
2023-02-22T06:14:10.078Z,6.98
2023-02-22T06:16:38.511Z,6.99
2023-02-22T06:19:06.325Z,7.00
2023-02-22T06:21:34.109Z,7.02
2023-02-22T06:24:04.512Z,7.01
2023-02-22T06:26:32.391Z,6.97
2023-02-22T06:29:00.253Z,6.94
2023-02-22T06:31:28.059Z,6.89
2023-02-22T06:33:56.361Z,6.88
2023-02-22T06:36:24.174Z,6.88
2023-02-22T06:38:52.102Z,6.89
2023-02-22T06:41:19.956Z,6.86
2023-02-22T06:43:48.637Z,6.85
2023-02-22T06:46:16.733Z,6.86
2023-02-22T06:48:44.545Z,6.86
2023-02-22T06:51:12.511Z,6.88
2023-02-22T06:53:40.395Z,6.91
2023-02-22T06:56:08.219Z,6.92
2023-02-22T06:58:36.020Z,6.96
2023-02-22T07:01:04.319Z,6.97
2023-02-22T07:03:32.225Z,6.96
2023-02-22T07:06:00.210Z,6.94
2023-02-22T07:08:29.097Z,6.95
2023-02-22T07:10:57.174Z,6.97
2023-02-22T07:13:25.246Z,7.02
2023-02-22T07:15:53.314Z,7.02
2023-02-22T07:18:21.224Z,6.99
2023-02-22T07:20:49.097Z,6.97
2023-02-22T07:23:18.453Z,6.98
2023-02-22T07:25:46.371Z,7.02
2023-02-22T07:28:14.315Z,7.02
2023-02-22T07:30:43.702Z,7.03
2023-02-22T07:33:14.019Z,7.07
2023-02-22T07:35:48.397Z,7.09
2023-02-22T07:38:20.305Z,7.09
2023-02-22T07:40:48.343Z,7.09
2023-02-22T07:43:25.957Z,7.12
2023-02-22T07:45:58.026Z,7.23
2023-02-22T07:48:30.077Z,7.28
2023-02-22T07:50:59.647Z,7.30
2023-02-22T07:53:32.512Z,7.33
2023-02-22T07:56:03.671Z,7.35
2023-02-22T07:58:32.904Z,7.38
2023-02-22T08:01:04.243Z,7.34
2023-02-22T08:03:37.841Z,7.31
2023-02-22T08:06:08.104Z,7.34
2023-02-22T08:08:35.935Z,7.40
2023-02-22T08:11:04.282Z,7.45
2023-02-22T08:13:32.873Z,7.46
2023-02-22T08:16:00.756Z,7.46
2023-02-22T08:18:28.565Z,7.50
2023-02-22T08:20:56.916Z,7.52
2023-02-22T08:23:27.094Z,7.57
2023-02-22T08:25:56.283Z,7.60
2023-02-22T08:28:25.362Z,7.63
2023-02-22T08:30:53.712Z,7.66
2023-02-22T08:33:21.978Z,7.73
2023-02-22T08:35:50.274Z,7.80
2023-02-22T08:38:31.094Z,7.86
2023-02-22T08:40:58.974Z,7.91
2023-02-22T08:43:28.556Z,7.96
2023-02-22T08:45:57.829Z,7.99
2023-02-22T08:48:25.839Z,8.07
2023-02-22T08:50:53.954Z,8.18
2023-02-22T08:53:21.805Z,8.28
2023-02-22T08:55:49.876Z,8.42
2023-02-22T08:58:17.770Z,8.52
2023-02-22T09:00:45.807Z,8.60
2023-02-22T09:03:15.509Z,8.65
2023-02-22T09:05:44.979Z,8.67
2023-02-22T09:08:13.424Z,8.69
2023-02-22T09:10:41.817Z,8.67
2023-02-22T09:13:09.668Z,8.62
2023-02-22T09:15:38.306Z,8.61
2023-02-22T09:18:09.507Z,8.63
2023-02-22T09:20:37.749Z,8.62
2023-02-22T09:23:09.667Z,8.61
2023-02-22T09:25:40.847Z,8.58
2023-02-22T09:28:09.324Z,8.58
2023-02-22T09:30:37.558Z,8.57
2023-02-22T09:33:14.645Z,8.52
2023-02-22T09:35:46.579Z,8.55
2023-02-22T09:38:19.428Z,8.59
2023-02-22T09:40:57.273Z,8.62
2023-02-22T09:43:43.111Z,8.67
2023-02-22T09:46:34.705Z,8.73
2023-02-22T09:49:15.570Z,8.76
2023-02-22T09:52:24.104Z,8.80
2023-02-22T09:55:17.852Z,8.77
2023-02-22T09:57:47.402Z,8.70
2023-02-22T10:00:22.716Z,8.66
2023-02-22T10:03:12.491Z,8.73
2023-02-22T10:05:46.458Z,8.88
2023-02-22T10:08:19.059Z,8.93
2023-02-22T10:11:19.704Z,8.95
2023-02-22T10:14:19.692Z,8.98
2023-02-22T10:17:19.846Z,8.95
2023-02-22T10:20:00.458Z,8.99
2023-02-22T10:23:00.940Z,9.03
2023-02-22T10:25:36.252Z,9.06
2023-02-22T10:28:15.930Z,9.07
2023-02-22T10:30:57.586Z,9.07
2023-02-22T10:33:34.772Z,9.13
2023-02-22T10:36:03.365Z,9.18
2023-02-22T10:38:34.630Z,9.22
2023-02-22T10:41:08.763Z,9.18
2023-02-22T10:43:42.934Z,9.16
2023-02-22T10:46:19.051Z,9.12
2023-02-22T10:48:55.064Z,9.10
2023-02-22T10:51:23.257Z,9.07
2023-02-22T10:54:14.189Z,9.06
2023-02-22T10:56:52.401Z,9.03
2023-02-22T10:59:42.053Z,9.06
2023-02-22T11:02:16.060Z,9.08
2023-02-22T11:04:51.430Z,9.11
2023-02-22T11:07:27.362Z,9.04
2023-02-22T11:10:09.518Z,9.00
2023-02-22T11:12:41.316Z,8.95
2023-02-22T11:15:24.334Z,8.97
2023-02-22T11:17:57.826Z,9.02
2023-02-22T11:20:39.348Z,9.03
2023-02-22T11:23:08.290Z,8.98
2023-02-22T11:25:40.485Z,8.92
2023-02-22T11:28:31.240Z,8.95
2023-02-22T11:31:14.607Z,9.03
2023-02-22T11:33:58.930Z,9.15
2023-02-22T11:36:40.412Z,9.24
2023-02-22T11:39:29.387Z,9.31
2023-02-22T11:41:57.395Z,9.39
2023-02-22T11:44:29.836Z,9.46
2023-02-22T11:47:07.075Z,9.50
2023-02-22T11:49:41.197Z,9.55
2023-02-22T11:52:34.750Z,9.52
2023-02-22T11:55:36.431Z,9.47
2023-02-22T11:58:33.563Z,9.45
2023-02-22T12:01:17.288Z,9.48
2023-02-22T12:04:10.583Z,9.51
2023-02-22T12:07:15.445Z,9.62
2023-02-22T12:10:05.606Z,9.84
2023-02-22T12:13:03.745Z,9.99
2023-02-22T12:15:56.295Z,10.23
2023-02-22T12:18:58.854Z,10.43
2023-02-22T12:21:30.214Z,10.48
2023-02-22T12:24:14.503Z,10.53
2023-02-22T12:26:49.012Z,10.69
2023-02-22T12:29:26.700Z,10.70
2023-02-22T12:32:10.356Z,10.64
2023-02-22T12:34:44.572Z,10.53
2023-02-22T12:37:25.051Z,10.50
2023-02-22T12:40:08.954Z,10.51
2023-02-22T12:43:05.381Z,10.48
2023-02-22T12:45:54.856Z,10.48
2023-02-22T12:48:44.512Z,10.43
2023-02-22T12:51:46.488Z,10.51
2023-02-22T12:54:46.332Z,10.61
2023-02-22T12:57:57.194Z,10.59
2023-02-22T13:00:36.762Z,10.40
2023-02-22T13:03:37.543Z,10.46
2023-02-22T13:06:49.625Z,10.52
2023-02-22T13:09:49.342Z,10.40
2023-02-22T13:12:53.639Z,10.26
2023-02-22T13:15:55.860Z,10.13
2023-02-22T13:18:45.010Z,10.01
2023-02-22T13:21:31.820Z,9.92
2023-02-22T13:24:58.507Z,9.89
2023-02-22T13:27:52.842Z,9.86
2023-02-22T13:30:38.214Z,9.82
2023-02-22T13:33:44.000Z,9.78
2023-02-22T13:36:38.804Z,9.73
2023-02-22T13:39:28.579Z,9.72
2023-02-22T13:42:34.819Z,9.75
2023-02-22T13:45:27.221Z,9.77
2023-02-22T13:48:39.442Z,9.77
2023-02-22T13:51:36.437Z,9.72
2023-02-22T13:54:34.636Z,9.71
2023-02-22T13:57:03.709Z,9.75
2023-02-22T13:59:37.164Z,9.76
2023-02-22T14:02:07.912Z,9.85
2023-02-22T14:04:41.033Z,9.98
2023-02-22T14:07:18.217Z,10.08
2023-02-22T14:09:56.758Z,10.13
2023-02-22T14:12:30.918Z,10.20
2023-02-22T14:15:26.543Z,10.19
2023-02-22T14:18:07.463Z,10.16
2023-02-22T14:20:38.252Z,10.22
2023-02-22T14:23:33.610Z,10.34
2023-02-22T14:26:19.829Z,10.41
2023-02-22T14:29:00.754Z,10.38
2023-02-22T14:31:46.567Z,10.28
2023-02-22T14:34:40.630Z,10.27
2023-02-22T14:37:17.654Z,10.22
2023-02-22T14:40:27.288Z,10.15
2023-02-22T14:43:19.851Z,10.13
2023-02-22T14:45:54.472Z,10.12
2023-02-22T14:48:39.260Z,10.12
2023-02-22T14:51:21.886Z,10.04
2023-02-22T14:53:59.984Z,10.05
2023-02-22T14:57:12.156Z,10.04
2023-02-22T15:00:22.726Z,10.23
2023-02-22T15:02:57.344Z,10.41
2023-02-22T15:05:30.438Z,10.53
2023-02-22T15:08:03.993Z,10.61
2023-02-22T15:10:43.164Z,10.61
2023-02-22T15:13:27.907Z,10.64
2023-02-22T15:16:01.789Z,10.74
2023-02-22T15:18:47.186Z,10.75
2023-02-22T15:21:24.049Z,10.62
2023-02-22T15:23:59.925Z,10.53
2023-02-22T15:26:52.025Z,10.46
2023-02-22T15:29:39.591Z,10.38
2023-02-22T15:32:30.500Z,10.32
2023-02-22T15:35:24.054Z,10.31
2023-02-22T15:38:04.116Z,10.29
2023-02-22T15:40:33.712Z,10.29
2023-02-22T15:43:08.588Z,10.29
2023-02-22T15:45:42.946Z,10.31
2023-02-22T15:48:12.063Z,10.39
2023-02-22T15:50:39.927Z,10.36
2023-02-22T15:53:28.812Z,10.31
2023-02-22T15:56:00.948Z,10.30
2023-02-22T15:58:30.027Z,10.31
2023-02-22T16:01:05.355Z,10.26
2023-02-22T16:03:51.856Z,10.19
2023-02-22T16:06:35.229Z,10.13
2023-02-22T16:09:30.352Z,10.05
2023-02-22T16:12:22.015Z,10.01
2023-02-22T16:14:52.452Z,10.03
2023-02-22T16:17:41.140Z,10.03
2023-02-22T16:20:14.389Z,10.04
2023-02-22T16:22:49.308Z,10.08
2023-02-22T16:25:21.588Z,10.11
2023-02-22T16:28:06.308Z,10.13
2023-02-22T16:30:37.712Z,10.13
2023-02-22T16:33:13.596Z,10.15
2023-02-22T16:35:51.804Z,10.15
2023-02-22T16:38:21.165Z,10.13
2023-02-22T16:40:54.909Z,10.15
2023-02-22T16:43:29.584Z,10.20
2023-02-22T16:45:58.356Z,10.25
2023-02-22T16:48:32.908Z,10.25
2023-02-22T16:51:09.204Z,10.25
2023-02-22T16:53:37.650Z,10.27
2023-02-22T16:56:11.756Z,10.26
2023-02-22T16:58:41.445Z,10.29
2023-02-22T17:01:09.985Z,10.27
2023-02-22T17:03:38.341Z,10.25
2023-02-22T17:06:07.186Z,10.19
2023-02-22T17:08:34.982Z,10.07
2023-02-22T17:11:04.134Z,9.95
2023-02-22T17:13:32.460Z,9.83
2023-02-22T17:16:00.304Z,9.68
2023-02-22T17:18:33.859Z,9.57
2023-02-22T17:21:03.443Z,9.44
2023-02-22T17:23:31.264Z,9.33
2023-02-22T17:26:04.650Z,9.23
2023-02-22T17:28:32.589Z,9.16
2023-02-22T17:31:01.964Z,9.09
2023-02-22T17:33:34.729Z,8.98
2023-02-22T17:36:05.290Z,8.91
2023-02-22T17:38:34.706Z,8.82
2023-02-22T17:41:03.341Z,8.71
2023-02-22T17:43:31.309Z,8.60
2023-02-22T17:45:59.453Z,8.49
2023-02-22T17:48:27.556Z,8.41
2023-02-22T17:50:56.111Z,8.33
2023-02-22T17:53:25.486Z,8.25
2023-02-22T17:55:53.605Z,8.18
2023-02-22T17:58:22.747Z,8.10
2023-02-22T18:00:51.786Z,8.02
2023-02-22T18:03:25.327Z,7.93
2023-02-22T18:05:59.986Z,7.85
2023-02-22T18:08:31.127Z,7.74
2023-02-22T18:11:03.350Z,7.66
2023-02-22T18:13:31.532Z,7.59
2023-02-22T18:16:00.218Z,7.51
2023-02-22T18:18:28.561Z,7.46
2023-02-22T18:20:59.805Z,7.40
2023-02-22T18:23:32.086Z,7.36
2023-02-22T18:26:11.746Z,7.29
2023-02-22T18:28:40.557Z,7.24
2023-02-22T18:31:17.084Z,7.18
2023-02-22T18:33:50.421Z,7.11
2023-02-22T18:36:23.283Z,7.07
2023-02-22T18:38:54.767Z,7.02
2023-02-22T18:41:25.367Z,6.97
2023-02-22T18:43:55.490Z,6.91
2023-02-22T18:46:24.652Z,6.89
2023-02-22T18:48:55.709Z,6.86
2023-02-22T18:51:25.702Z,6.83
2023-02-22T18:54:00.249Z,6.80
2023-02-22T18:56:30.226Z,6.79
2023-02-22T18:59:04.454Z,6.76
2023-02-22T19:01:39.123Z,6.72
2023-02-22T19:04:12.541Z,6.69
2023-02-22T19:06:41.314Z,6.64
2023-02-22T19:09:09.421Z,6.60
2023-02-22T19:11:37.525Z,6.53
2023-02-22T19:14:05.486Z,6.51
2023-02-22T19:16:33.550Z,6.48
2023-02-22T19:19:01.628Z,6.44
2023-02-22T19:21:31.877Z,6.39
2023-02-22T19:24:04.582Z,6.33
2023-02-22T19:26:32.600Z,6.31
2023-02-22T19:29:08.445Z,6.28
2023-02-22T19:31:36.556Z,6.24
2023-02-22T19:34:10.334Z,6.21
2023-02-22T19:36:45.872Z,6.21
2023-02-22T19:39:17.254Z,6.19
2023-02-22T19:41:46.018Z,6.18
2023-02-22T19:44:14.053Z,6.18
2023-02-22T19:46:42.162Z,6.19
2023-02-22T19:49:10.034Z,6.19
2023-02-22T19:51:38.012Z,6.17
2023-02-22T19:54:11.101Z,6.14
2023-02-22T19:56:38.949Z,6.11
2023-02-22T19:59:13.625Z,6.08
2023-02-22T20:01:45.682Z,6.07
2023-02-22T20:04:18.504Z,6.04
2023-02-22T20:06:54.649Z,6.03
2023-02-22T20:09:30.095Z,6.03
2023-02-22T20:11:58.775Z,6.00
2023-02-22T20:14:28.647Z,5.95
2023-02-22T20:16:58.813Z,5.91
2023-02-22T20:19:28.359Z,5.89
2023-02-22T20:21:56.849Z,5.88
2023-02-22T20:24:25.687Z,5.87
2023-02-22T20:26:55.850Z,5.85
2023-02-22T20:29:29.872Z,5.83
2023-02-22T20:32:00.605Z,5.80
2023-02-22T20:34:32.364Z,5.78
2023-02-22T20:37:01.326Z,5.77
2023-02-22T20:39:29.675Z,5.75
2023-02-22T20:42:00.447Z,5.77
2023-02-22T20:44:28.364Z,5.78
2023-02-22T20:46:56.264Z,5.82
2023-02-22T20:49:25.836Z,5.84
2023-02-22T20:51:53.722Z,5.84
2023-02-22T20:54:21.677Z,5.83
2023-02-22T20:56:52.657Z,5.81
2023-02-22T20:59:21.841Z,5.81
2023-02-22T21:01:50.461Z,5.80
2023-02-22T21:04:19.055Z,5.81
2023-02-22T21:06:46.934Z,5.84
2023-02-22T21:09:19.822Z,5.86
2023-02-22T21:11:47.938Z,5.83
2023-02-22T21:14:20.750Z,5.80
2023-02-22T21:16:51.611Z,5.75
2023-02-22T21:19:25.750Z,5.74
2023-02-22T21:22:01.500Z,5.75
2023-02-22T21:24:29.855Z,5.77
2023-02-22T21:27:01.120Z,5.76
2023-02-22T21:29:29.801Z,5.74
2023-02-22T21:31:58.636Z,5.71
2023-02-22T21:34:26.662Z,5.71
2023-02-22T21:36:54.779Z,5.69
2023-02-22T21:39:28.136Z,5.67
2023-02-22T21:42:00.713Z,5.67
2023-02-22T21:44:29.652Z,5.67
2023-02-22T21:46:57.695Z,5.68
2023-02-22T21:49:25.606Z,5.70
2023-02-22T21:51:53.847Z,5.72
2023-02-22T21:54:21.808Z,5.73
2023-02-22T21:56:50.563Z,5.71
2023-02-22T21:59:22.469Z,5.71
2023-02-22T22:01:55.855Z,5.72
2023-02-22T22:04:32.528Z,5.70
2023-02-22T22:07:02.330Z,5.67
2023-02-22T22:09:37.716Z,5.66
2023-02-22T22:12:06.157Z,5.64
2023-02-22T22:14:35.267Z,5.61
2023-02-22T22:17:07.048Z,5.57
2023-02-22T22:19:39.272Z,5.55
2023-02-22T22:22:08.140Z,5.52
2023-02-22T22:24:37.121Z,5.45
2023-02-22T22:27:06.560Z,5.41
2023-02-22T22:29:34.639Z,5.35
2023-02-22T22:32:03.700Z,5.32
2023-02-22T22:34:34.429Z,5.30
2023-02-22T22:37:03.071Z,5.24
2023-02-22T22:39:31.792Z,5.19
2023-02-22T22:41:59.777Z,5.16
2023-02-22T22:44:33.138Z,5.11
2023-02-22T22:47:01.453Z,5.09
2023-02-22T22:49:31.343Z,5.06
2023-02-22T22:51:59.226Z,5.03
2023-02-22T22:54:27.101Z,5.01
2023-02-22T22:56:54.858Z,4.99
2023-02-22T22:59:22.818Z,5.00
2023-02-22T23:01:52.268Z,4.96
2023-02-22T23:04:21.483Z,4.96
2023-02-22T23:06:52.814Z,4.99
2023-02-22T23:09:34.733Z,5.05
2023-02-22T23:12:17.597Z,5.13
2023-02-22T23:14:45.813Z,5.21
2023-02-22T23:17:26.879Z,5.28
2023-02-22T23:19:54.888Z,5.39
2023-02-22T23:22:23.080Z,5.47
2023-02-22T23:24:50.946Z,5.56
2023-02-22T23:27:19.223Z,5.62
2023-02-22T23:29:47.201Z,5.68
2023-02-22T23:32:15.260Z,5.74
2023-02-22T23:34:43.209Z,5.77
2023-02-22T23:37:13.623Z,5.80
2023-02-22T23:39:42.426Z,5.82
2023-02-22T23:42:10.256Z,5.86
2023-02-22T23:44:39.811Z,5.90
2023-02-22T23:47:07.685Z,5.94
2023-02-22T23:49:38.027Z,5.97
2023-02-22T23:52:08.515Z,5.98
2023-02-22T23:54:40.394Z,6.01
2023-02-22T23:57:08.879Z,6.03
2023-02-22T23:59:40.386Z,6.03
